sensor_id;sensor_type;location;lat;lon;timestamp;temperature;humidity
11666;DHT22;5889;51.350;6.708;2023-07-20T00:02:24;18.70;99.90
11666;DHT22;5889;51.350;6.708;2023-07-20T00:04:51;18.70;99.90
11666;DHT22;5889;51.350;6.708;2023-07-20T00:07:18;18.80;99.90
11666;DHT22;5889;51.350;6.708;2023-07-20T00:09:45;18.80;99.90
11666;DHT22;5889;51.350;6.708;2023-07-20T00:12:14;18.90;99.90
11666;DHT22;5889;51.350;6.708;2023-07-20T00:14:41;18.90;99.90
11666;DHT22;5889;51.350;6.708;2023-07-20T00:17:08;18.90;99.90
11666;DHT22;5889;51.350;6.708;2023-07-20T00:19:35;18.90;99.90
11666;DHT22;5889;51.350;6.708;2023-07-20T00:22:02;18.90;99.90
11666;DHT22;5889;51.350;6.708;2023-07-20T00:24:30;18.90;99.90
11666;DHT22;5889;51.350;6.708;2023-07-20T00:26:58;18.80;99.90
11666;DHT22;5889;51.350;6.708;2023-07-20T00:29:27;18.70;99.90
11666;DHT22;5889;51.350;6.708;2023-07-20T00:31:54;18.70;99.90
11666;DHT22;5889;51.350;6.708;2023-07-20T00:34:21;18.70;99.90
11666;DHT22;5889;51.350;6.708;2023-07-20T00:36:48;18.70;99.90
11666;DHT22;5889;51.350;6.708;2023-07-20T00:39:15;18.70;99.90
11666;DHT22;5889;51.350;6.708;2023-07-20T00:41:43;18.70;99.90
11666;DHT22;5889;51.350;6.708;2023-07-20T00:44:09;18.70;99.90
11666;DHT22;5889;51.350;6.708;2023-07-20T00:46:38;18.60;99.90
11666;DHT22;5889;51.350;6.708;2023-07-20T00:49:07;18.60;99.90
11666;DHT22;5889;51.350;6.708;2023-07-20T00:51:34;18.70;99.90
11666;DHT22;5889;51.350;6.708;2023-07-20T00:54:01;18.60;99.90
11666;DHT22;5889;51.350;6.708;2023-07-20T00:56:28;18.60;99.90
11666;DHT22;5889;51.350;6.708;2023-07-20T00:58:55;18.60;99.90
11666;DHT22;5889;51.350;6.708;2023-07-20T01:01:22;18.50;99.90
11666;DHT22;5889;51.350;6.708;2023-07-20T01:03:51;18.50;99.90
11666;DHT22;5889;51.350;6.708;2023-07-20T01:06:26;18.40;99.90
11666;DHT22;5889;51.350;6.708;2023-07-20T01:09:02;18.40;99.90
11666;DHT22;5889;51.350;6.708;2023-07-20T01:11:38;18.40;99.90
11666;DHT22;5889;51.350;6.708;2023-07-20T01:14:05;18.30;99.90
11666;DHT22;5889;51.350;6.708;2023-07-20T01:16:33;18.20;99.90
11666;DHT22;5889;51.350;6.708;2023-07-20T01:19:01;18.10;99.90
11666;DHT22;5889;51.350;6.708;2023-07-20T01:21:38;18.10;99.90
11666;DHT22;5889;51.350;6.708;2023-07-20T01:24:32;18.10;99.90
11666;DHT22;5889;51.350;6.708;2023-07-20T01:30:32;17.90;99.90
11666;DHT22;5889;51.350;6.708;2023-07-20T01:33:03;17.90;99.90
11666;DHT22;5889;51.350;6.708;2023-07-20T01:35:32;17.90;99.90
11666;DHT22;5889;51.350;6.708;2023-07-20T01:38:00;18.00;99.90
11666;DHT22;5889;51.350;6.708;2023-07-20T01:40:28;18.00;99.90
11666;DHT22;5889;51.350;6.708;2023-07-20T01:42:56;17.90;99.90
11666;DHT22;5889;51.350;6.708;2023-07-20T01:45:23;17.90;99.90
11666;DHT22;5889;51.350;6.708;2023-07-20T01:47:50;17.90;99.90
11666;DHT22;5889;51.350;6.708;2023-07-20T01:50:18;18.00;99.90
11666;DHT22;5889;51.350;6.708;2023-07-20T01:52:45;18.00;99.90
11666;DHT22;5889;51.350;6.708;2023-07-20T01:55:12;18.00;99.90
11666;DHT22;5889;51.350;6.708;2023-07-20T01:57:39;18.00;99.90
11666;DHT22;5889;51.350;6.708;2023-07-20T02:00:07;17.90;99.90
11666;DHT22;5889;51.350;6.708;2023-07-20T02:02:35;17.90;99.90
11666;DHT22;5889;51.350;6.708;2023-07-20T02:05:02;17.80;99.90
11666;DHT22;5889;51.350;6.708;2023-07-20T02:07:31;17.80;99.90
11666;DHT22;5889;51.350;6.708;2023-07-20T02:09:57;17.70;99.90
11666;DHT22;5889;51.350;6.708;2023-07-20T02:12:24;17.70;99.90
11666;DHT22;5889;51.350;6.708;2023-07-20T02:14:51;17.70;99.90
11666;DHT22;5889;51.350;6.708;2023-07-20T02:17:18;17.70;99.90
11666;DHT22;5889;51.350;6.708;2023-07-20T02:19:45;17.60;99.90
11666;DHT22;5889;51.350;6.708;2023-07-20T02:22:15;17.60;99.90
11666;DHT22;5889;51.350;6.708;2023-07-20T02:24:43;17.60;99.90
11666;DHT22;5889;51.350;6.708;2023-07-20T02:27:10;17.50;99.90
11666;DHT22;5889;51.350;6.708;2023-07-20T02:29:53;17.60;99.90
11666;DHT22;5889;51.350;6.708;2023-07-20T02:32:20;17.60;99.90
11666;DHT22;5889;51.350;6.708;2023-07-20T02:34:46;17.50;99.90
11666;DHT22;5889;51.350;6.708;2023-07-20T02:37:13;17.50;99.90
11666;DHT22;5889;51.350;6.708;2023-07-20T02:39:40;17.50;99.90
11666;DHT22;5889;51.350;6.708;2023-07-20T02:42:09;17.50;99.90
11666;DHT22;5889;51.350;6.708;2023-07-20T02:44:36;17.50;99.90
11666;DHT22;5889;51.350;6.708;2023-07-20T02:47:03;17.50;99.90
11666;DHT22;5889;51.350;6.708;2023-07-20T02:49:30;17.40;99.90
11666;DHT22;5889;51.350;6.708;2023-07-20T02:51:57;17.50;99.90
11666;DHT22;5889;51.350;6.708;2023-07-20T02:54:24;17.50;99.90
11666;DHT22;5889;51.350;6.708;2023-07-20T02:56:51;17.50;99.90
11666;DHT22;5889;51.350;6.708;2023-07-20T02:59:19;17.40;99.90
11666;DHT22;5889;51.350;6.708;2023-07-20T03:01:46;17.40;99.90
11666;DHT22;5889;51.350;6.708;2023-07-20T03:04:13;17.40;99.90
11666;DHT22;5889;51.350;6.708;2023-07-20T03:06:40;17.40;99.90
11666;DHT22;5889;51.350;6.708;2023-07-20T03:09:07;17.40;99.90
11666;DHT22;5889;51.350;6.708;2023-07-20T03:11:35;17.40;99.90
11666;DHT22;5889;51.350;6.708;2023-07-20T03:14:02;17.40;99.90
11666;DHT22;5889;51.350;6.708;2023-07-20T03:16:30;17.30;99.90
11666;DHT22;5889;51.350;6.708;2023-07-20T03:18:58;17.30;99.90
11666;DHT22;5889;51.350;6.708;2023-07-20T03:21:26;17.20;99.90
11666;DHT22;5889;51.350;6.708;2023-07-20T03:23:53;17.10;99.90
11666;DHT22;5889;51.350;6.708;2023-07-20T03:26:20;17.00;99.90
11666;DHT22;5889;51.350;6.708;2023-07-20T03:28:47;17.00;99.90
11666;DHT22;5889;51.350;6.708;2023-07-20T03:31:17;17.00;99.90
11666;DHT22;5889;51.350;6.708;2023-07-20T03:33:45;17.00;99.90
11666;DHT22;5889;51.350;6.708;2023-07-20T03:36:12;16.90;99.90
11666;DHT22;5889;51.350;6.708;2023-07-20T03:38:39;16.80;99.90
11666;DHT22;5889;51.350;6.708;2023-07-20T03:41:06;16.70;99.90
11666;DHT22;5889;51.350;6.708;2023-07-20T03:43:33;16.70;99.90
11666;DHT22;5889;51.350;6.708;2023-07-20T03:46:00;16.60;99.90
11666;DHT22;5889;51.350;6.708;2023-07-20T03:48:32;16.50;99.90
11666;DHT22;5889;51.350;6.708;2023-07-20T03:51:01;16.50;99.90
11666;DHT22;5889;51.350;6.708;2023-07-20T03:53:27;16.40;99.90
11666;DHT22;5889;51.350;6.708;2023-07-20T03:56:17;16.40;99.90
11666;DHT22;5889;51.350;6.708;2023-07-20T03:58:44;16.50;99.90
11666;DHT22;5889;51.350;6.708;2023-07-20T04:01:11;16.50;99.90
11666;DHT22;5889;51.350;6.708;2023-07-20T04:03:38;16.60;99.90
11666;DHT22;5889;51.350;6.708;2023-07-20T04:06:07;16.60;99.90
11666;DHT22;5889;51.350;6.708;2023-07-20T04:08:53;16.60;99.90
11666;DHT22;5889;51.350;6.708;2023-07-20T04:11:20;16.60;99.90
11666;DHT22;5889;51.350;6.708;2023-07-20T04:13:47;16.60;99.90
11666;DHT22;5889;51.350;6.708;2023-07-20T04:16:14;16.60;99.90
11666;DHT22;5889;51.350;6.708;2023-07-20T04:18:41;16.60;99.90
11666;DHT22;5889;51.350;6.708;2023-07-20T04:21:09;16.60;99.90
11666;DHT22;5889;51.350;6.708;2023-07-20T04:23:36;16.60;99.90
11666;DHT22;5889;51.350;6.708;2023-07-20T04:29:52;16.50;99.90
11666;DHT22;5889;51.350;6.708;2023-07-20T04:32:19;16.50;99.90
11666;DHT22;5889;51.350;6.708;2023-07-20T04:34:46;16.50;99.90
11666;DHT22;5889;51.350;6.708;2023-07-20T04:37:14;16.50;99.90
11666;DHT22;5889;51.350;6.708;2023-07-20T04:39:41;16.50;99.90
11666;DHT22;5889;51.350;6.708;2023-07-20T04:42:08;16.50;99.90
11666;DHT22;5889;51.350;6.708;2023-07-20T04:44:35;16.50;99.90
11666;DHT22;5889;51.350;6.708;2023-07-20T04:47:02;16.50;99.90
11666;DHT22;5889;51.350;6.708;2023-07-20T04:49:29;16.60;99.90
11666;DHT22;5889;51.350;6.708;2023-07-20T04:51:56;16.60;99.90
11666;DHT22;5889;51.350;6.708;2023-07-20T04:54:25;16.60;99.90
11666;DHT22;5889;51.350;6.708;2023-07-20T04:56:52;16.60;99.90
11666;DHT22;5889;51.350;6.708;2023-07-20T04:59:19;16.70;99.90
11666;DHT22;5889;51.350;6.708;2023-07-20T05:01:46;16.70;99.90
11666;DHT22;5889;51.350;6.708;2023-07-20T05:04:13;16.70;99.90
11666;DHT22;5889;51.350;6.708;2023-07-20T05:06:40;16.80;99.90
11666;DHT22;5889;51.350;6.708;2023-07-20T05:09:08;16.80;99.90
11666;DHT22;5889;51.350;6.708;2023-07-20T05:11:37;16.80;99.90
11666;DHT22;5889;51.350;6.708;2023-07-20T05:14:03;16.80;99.90
11666;DHT22;5889;51.350;6.708;2023-07-20T05:16:30;16.80;99.90
11666;DHT22;5889;51.350;6.708;2023-07-20T05:18:57;16.80;99.90
11666;DHT22;5889;51.350;6.708;2023-07-20T05:21:25;16.80;99.90
11666;DHT22;5889;51.350;6.708;2023-07-20T05:23:52;16.70;99.90
11666;DHT22;5889;51.350;6.708;2023-07-20T05:26:19;16.60;99.90
11666;DHT22;5889;51.350;6.708;2023-07-20T05:28:48;16.60;99.90
11666;DHT22;5889;51.350;6.708;2023-07-20T05:31:16;16.70;99.90
11666;DHT22;5889;51.350;6.708;2023-07-20T05:33:46;16.60;99.90
11666;DHT22;5889;51.350;6.708;2023-07-20T05:36:13;16.60;99.90
11666;DHT22;5889;51.350;6.708;2023-07-20T05:38:40;16.70;99.90
11666;DHT22;5889;51.350;6.708;2023-07-20T05:41:07;16.70;99.90
11666;DHT22;5889;51.350;6.708;2023-07-20T05:43:36;16.70;99.90
11666;DHT22;5889;51.350;6.708;2023-07-20T05:46:05;16.70;99.90
11666;DHT22;5889;51.350;6.708;2023-07-20T05:48:32;16.70;99.90
11666;DHT22;5889;51.350;6.708;2023-07-20T05:50:59;16.70;99.90
11666;DHT22;5889;51.350;6.708;2023-07-20T05:53:27;16.60;99.90
11666;DHT22;5889;51.350;6.708;2023-07-20T05:55:55;16.50;99.90
11666;DHT22;5889;51.350;6.708;2023-07-20T05:58:22;16.60;99.90
11666;DHT22;5889;51.350;6.708;2023-07-20T06:00:50;16.60;99.90
11666;DHT22;5889;51.350;6.708;2023-07-20T06:03:18;16.60;99.90
11666;DHT22;5889;51.350;6.708;2023-07-20T06:05:47;16.70;99.90
11666;DHT22;5889;51.350;6.708;2023-07-20T06:08:14;16.90;99.90
11666;DHT22;5889;51.350;6.708;2023-07-20T06:10:41;16.80;99.90
11666;DHT22;5889;51.350;6.708;2023-07-20T06:13:08;16.90;99.90
11666;DHT22;5889;51.350;6.708;2023-07-20T06:15:34;16.70;99.90
11666;DHT22;5889;51.350;6.708;2023-07-20T06:18:01;16.50;99.90
11666;DHT22;5889;51.350;6.708;2023-07-20T06:20:30;16.50;99.90
11666;DHT22;5889;51.350;6.708;2023-07-20T06:22:57;16.50;99.90
11666;DHT22;5889;51.350;6.708;2023-07-20T06:25:24;16.50;99.90
11666;DHT22;5889;51.350;6.708;2023-07-20T06:27:51;16.50;99.90
11666;DHT22;5889;51.350;6.708;2023-07-20T06:30:19;16.60;99.90
11666;DHT22;5889;51.350;6.708;2023-07-20T06:32:46;16.70;99.90
11666;DHT22;5889;51.350;6.708;2023-07-20T06:35:14;16.90;99.90
11666;DHT22;5889;51.350;6.708;2023-07-20T06:37:42;16.90;99.90
11666;DHT22;5889;51.350;6.708;2023-07-20T06:40:10;17.00;99.90
11666;DHT22;5889;51.350;6.708;2023-07-20T06:42:37;17.10;99.90
11666;DHT22;5889;51.350;6.708;2023-07-20T06:45:04;17.00;99.90
11666;DHT22;5889;51.350;6.708;2023-07-20T06:47:31;17.00;99.90
11666;DHT22;5889;51.350;6.708;2023-07-20T06:49:58;17.00;99.90
11666;DHT22;5889;51.350;6.708;2023-07-20T06:52:25;16.90;99.90
11666;DHT22;5889;51.350;6.708;2023-07-20T06:54:54;17.00;99.90
11666;DHT22;5889;51.350;6.708;2023-07-20T06:57:21;16.90;99.90
11666;DHT22;5889;51.350;6.708;2023-07-20T06:59:48;16.80;99.90
11666;DHT22;5889;51.350;6.708;2023-07-20T07:02:15;16.90;99.90
11666;DHT22;5889;51.350;6.708;2023-07-20T07:04:42;16.80;99.90
11666;DHT22;5889;51.350;6.708;2023-07-20T07:07:09;16.80;99.90
11666;DHT22;5889;51.350;6.708;2023-07-20T07:09:36;16.90;99.90
11666;DHT22;5889;51.350;6.708;2023-07-20T07:12:05;16.90;99.90
11666;DHT22;5889;51.350;6.708;2023-07-20T07:14:32;17.00;99.90
11666;DHT22;5889;51.350;6.708;2023-07-20T07:17:00;17.10;99.90
11666;DHT22;5889;51.350;6.708;2023-07-20T07:19:27;17.20;99.90
11666;DHT22;5889;51.350;6.708;2023-07-20T07:21:54;17.40;99.90
11666;DHT22;5889;51.350;6.708;2023-07-20T07:24:21;17.50;99.90
11666;DHT22;5889;51.350;6.708;2023-07-20T07:26:48;17.60;99.90
11666;DHT22;5889;51.350;6.708;2023-07-20T07:29:17;17.70;99.90
11666;DHT22;5889;51.350;6.708;2023-07-20T07:31:43;17.80;99.90
11666;DHT22;5889;51.350;6.708;2023-07-20T07:34:10;17.90;99.90
11666;DHT22;5889;51.350;6.708;2023-07-20T07:36:37;17.90;99.90
11666;DHT22;5889;51.350;6.708;2023-07-20T07:39:04;17.90;99.90
11666;DHT22;5889;51.350;6.708;2023-07-20T07:41:31;17.90;99.90
11666;DHT22;5889;51.350;6.708;2023-07-20T07:43:58;18.00;99.90
11666;DHT22;5889;51.350;6.708;2023-07-20T07:46:27;17.90;99.90
11666;DHT22;5889;51.350;6.708;2023-07-20T07:48:54;18.00;99.90
11666;DHT22;5889;51.350;6.708;2023-07-20T07:51:21;18.00;99.90
11666;DHT22;5889;51.350;6.708;2023-07-20T07:53:48;18.00;99.90
11666;DHT22;5889;51.350;6.708;2023-07-20T07:56:15;17.90;99.90
11666;DHT22;5889;51.350;6.708;2023-07-20T07:58:43;17.90;99.90
11666;DHT22;5889;51.350;6.708;2023-07-20T08:01:10;18.00;99.90
11666;DHT22;5889;51.350;6.708;2023-07-20T08:03:38;18.00;99.90
11666;DHT22;5889;51.350;6.708;2023-07-20T08:06:05;18.10;99.90
11666;DHT22;5889;51.350;6.708;2023-07-20T08:08:32;18.30;99.90
11666;DHT22;5889;51.350;6.708;2023-07-20T08:10:59;18.70;99.90
11666;DHT22;5889;51.350;6.708;2023-07-20T08:13:26;18.90;99.90
11666;DHT22;5889;51.350;6.708;2023-07-20T08:15:53;19.10;99.90
11666;DHT22;5889;51.350;6.708;2023-07-20T08:18:20;19.00;99.90
11666;DHT22;5889;51.350;6.708;2023-07-20T08:20:48;18.90;99.90
11666;DHT22;5889;51.350;6.708;2023-07-20T08:23:16;19.00;99.90
11666;DHT22;5889;51.350;6.708;2023-07-20T08:25:43;19.10;99.90
11666;DHT22;5889;51.350;6.708;2023-07-20T08:28:10;19.40;99.90
11666;DHT22;5889;51.350;6.708;2023-07-20T08:30:42;19.50;99.90
11666;DHT22;5889;51.350;6.708;2023-07-20T08:33:10;19.40;99.90
11666;DHT22;5889;51.350;6.708;2023-07-20T08:35:37;19.20;99.90
11666;DHT22;5889;51.350;6.708;2023-07-20T08:38:05;19.40;99.90
11666;DHT22;5889;51.350;6.708;2023-07-20T08:40:34;19.50;99.90
11666;DHT22;5889;51.350;6.708;2023-07-20T08:43:05;19.30;99.90
11666;DHT22;5889;51.350;6.708;2023-07-20T08:45:34;19.40;99.90
11666;DHT22;5889;51.350;6.708;2023-07-20T08:48:03;19.70;99.90
11666;DHT22;5889;51.350;6.708;2023-07-20T08:50:32;20.10;99.90
11666;DHT22;5889;51.350;6.708;2023-07-20T08:52:59;20.50;99.90
11666;DHT22;5889;51.350;6.708;2023-07-20T08:55:29;20.80;99.90
11666;DHT22;5889;51.350;6.708;2023-07-20T08:57:57;21.00;99.90
11666;DHT22;5889;51.350;6.708;2023-07-20T09:00:26;21.00;99.90
11666;DHT22;5889;51.350;6.708;2023-07-20T09:02:55;21.20;99.90
11666;DHT22;5889;51.350;6.708;2023-07-20T09:05:23;21.00;99.90
11666;DHT22;5889;51.350;6.708;2023-07-20T09:07:51;20.60;99.90
11666;DHT22;5889;51.350;6.708;2023-07-20T09:10:19;20.20;99.90
11666;DHT22;5889;51.350;6.708;2023-07-20T09:12:48;20.30;99.90
11666;DHT22;5889;51.350;6.708;2023-07-20T09:15:15;20.50;99.90
11666;DHT22;5889;51.350;6.708;2023-07-20T09:17:46;20.50;99.90
11666;DHT22;5889;51.350;6.708;2023-07-20T09:20:15;20.70;99.90
11666;DHT22;5889;51.350;6.708;2023-07-20T09:22:42;20.90;99.90
11666;DHT22;5889;51.350;6.708;2023-07-20T09:25:11;21.50;99.90
11666;DHT22;5889;51.350;6.708;2023-07-20T09:27:40;21.80;99.90
11666;DHT22;5889;51.350;6.708;2023-07-20T09:30:10;21.80;99.90
11666;DHT22;5889;51.350;6.708;2023-07-20T09:32:39;22.10;99.90
11666;DHT22;5889;51.350;6.708;2023-07-20T09:35:11;22.40;99.30
11666;DHT22;5889;51.350;6.708;2023-07-20T09:37:39;22.40;99.90
11666;DHT22;5889;51.350;6.708;2023-07-20T09:40:07;22.00;99.60
11666;DHT22;5889;51.350;6.708;2023-07-20T09:42:36;21.60;99.10
11666;DHT22;5889;51.350;6.708;2023-07-20T09:45:08;21.60;98.90
11666;DHT22;5889;51.350;6.708;2023-07-20T09:47:36;21.80;98.30
11666;DHT22;5889;51.350;6.708;2023-07-20T09:50:05;22.10;97.00
11666;DHT22;5889;51.350;6.708;2023-07-20T09:52:38;22.50;97.70
11666;DHT22;5889;51.350;6.708;2023-07-20T09:55:07;23.00;97.30
11666;DHT22;5889;51.350;6.708;2023-07-20T09:57:35;23.40;95.50
11666;DHT22;5889;51.350;6.708;2023-07-20T10:00:04;23.50;95.00
11666;DHT22;5889;51.350;6.708;2023-07-20T10:02:42;23.40;95.30
11666;DHT22;5889;51.350;6.708;2023-07-20T10:05:11;22.80;95.80
11666;DHT22;5889;51.350;6.708;2023-07-20T10:07:43;22.60;95.70
11666;DHT22;5889;51.350;6.708;2023-07-20T10:10:11;22.70;95.60
11666;DHT22;5889;51.350;6.708;2023-07-20T10:12:41;22.80;95.40
11666;DHT22;5889;51.350;6.708;2023-07-20T10:15:12;22.80;94.60
11666;DHT22;5889;51.350;6.708;2023-07-20T10:17:47;23.10;93.60
11666;DHT22;5889;51.350;6.708;2023-07-20T10:20:17;23.60;93.20
11666;DHT22;5889;51.350;6.708;2023-07-20T10:22:46;23.90;92.60
11666;DHT22;5889;51.350;6.708;2023-07-20T10:25:14;24.50;92.00
11666;DHT22;5889;51.350;6.708;2023-07-20T10:27:42;24.60;91.50
11666;DHT22;5889;51.350;6.708;2023-07-20T10:30:10;24.40;94.00
11666;DHT22;5889;51.350;6.708;2023-07-20T10:32:37;23.90;92.20
11666;DHT22;5889;51.350;6.708;2023-07-20T10:35:13;23.30;93.00
11666;DHT22;5889;51.350;6.708;2023-07-20T10:37:52;22.90;93.20
11666;DHT22;5889;51.350;6.708;2023-07-20T10:40:32;23.20;93.80
11666;DHT22;5889;51.350;6.708;2023-07-20T10:43:01;23.70;92.50
11666;DHT22;5889;51.350;6.708;2023-07-20T10:45:42;23.70;91.60
11666;DHT22;5889;51.350;6.708;2023-07-20T10:48:16;23.90;91.50
11666;DHT22;5889;51.350;6.708;2023-07-20T10:50:45;24.30;90.30
11666;DHT22;5889;51.350;6.708;2023-07-20T10:53:15;24.90;90.20
11666;DHT22;5889;51.350;6.708;2023-07-20T10:55:42;25.40;88.60
11666;DHT22;5889;51.350;6.708;2023-07-20T10:58:10;25.20;88.20
11666;DHT22;5889;51.350;6.708;2023-07-20T11:00:38;24.90;90.60
11666;DHT22;5889;51.350;6.708;2023-07-20T11:03:31;24.40;91.20
11666;DHT22;5889;51.350;6.708;2023-07-20T11:06:30;23.90;91.50
11666;DHT22;5889;51.350;6.708;2023-07-20T11:09:04;23.50;91.80
11666;DHT22;5889;51.350;6.708;2023-07-20T11:11:33;23.20;92.00
11666;DHT22;5889;51.350;6.708;2023-07-20T11:14:02;23.30;91.80
11666;DHT22;5889;51.350;6.708;2023-07-20T11:16:34;23.90;91.30
11666;DHT22;5889;51.350;6.708;2023-07-20T11:19:01;24.30;90.80
11666;DHT22;5889;51.350;6.708;2023-07-20T11:21:34;24.80;89.80
11666;DHT22;5889;51.350;6.708;2023-07-20T11:24:03;25.40;87.70
11666;DHT22;5889;51.350;6.708;2023-07-20T11:26:48;25.60;87.70
11666;DHT22;5889;51.350;6.708;2023-07-20T11:29:16;25.60;87.90
11666;DHT22;5889;51.350;6.708;2023-07-20T11:31:44;25.10;89.90
11666;DHT22;5889;51.350;6.708;2023-07-20T11:34:12;24.50;90.00
11666;DHT22;5889;51.350;6.708;2023-07-20T11:36:42;24.00;90.60
11666;DHT22;5889;51.350;6.708;2023-07-20T11:39:09;23.60;90.60
11666;DHT22;5889;51.350;6.708;2023-07-20T11:41:37;23.60;91.20
11666;DHT22;5889;51.350;6.708;2023-07-20T11:44:04;23.50;90.80
11666;DHT22;5889;51.350;6.708;2023-07-20T11:46:33;23.70;90.40
11666;DHT22;5889;51.350;6.708;2023-07-20T11:49:00;24.00;90.00
11666;DHT22;5889;51.350;6.708;2023-07-20T11:51:28;24.60;88.00
11666;DHT22;5889;51.350;6.708;2023-07-20T11:53:57;25.00;86.70
11666;DHT22;5889;51.350;6.708;2023-07-20T11:56:26;25.20;88.00
11666;DHT22;5889;51.350;6.708;2023-07-20T11:58:55;24.50;88.00
11666;DHT22;5889;51.350;6.708;2023-07-20T12:01:25;24.20;89.30
11666;DHT22;5889;51.350;6.708;2023-07-20T12:03:55;24.30;87.60
11666;DHT22;5889;51.350;6.708;2023-07-20T12:06:23;24.50;87.40
11666;DHT22;5889;51.350;6.708;2023-07-20T12:08:54;24.80;87.40
11666;DHT22;5889;51.350;6.708;2023-07-20T12:11:37;24.30;88.50
11666;DHT22;5889;51.350;6.708;2023-07-20T12:14:07;24.00;88.40
11666;DHT22;5889;51.350;6.708;2023-07-20T12:16:35;23.70;90.20
11666;DHT22;5889;51.350;6.708;2023-07-20T12:19:05;23.40;90.60
11666;DHT22;5889;51.350;6.708;2023-07-20T12:21:34;23.30;90.00
11666;DHT22;5889;51.350;6.708;2023-07-20T12:24:05;23.20;90.30
11666;DHT22;5889;51.350;6.708;2023-07-20T12:26:34;22.90;90.10
11666;DHT22;5889;51.350;6.708;2023-07-20T12:29:01;22.80;90.50
11666;DHT22;5889;51.350;6.708;2023-07-20T12:31:30;22.80;90.20
11666;DHT22;5889;51.350;6.708;2023-07-20T12:33:58;22.80;90.00
11666;DHT22;5889;51.350;6.708;2023-07-20T12:36:25;22.80;90.20
11666;DHT22;5889;51.350;6.708;2023-07-20T12:38:52;22.80;90.50
11666;DHT22;5889;51.350;6.708;2023-07-20T12:41:19;23.00;89.80
11666;DHT22;5889;51.350;6.708;2023-07-20T12:43:47;23.40;88.20
11666;DHT22;5889;51.350;6.708;2023-07-20T12:46:15;23.70;89.60
11666;DHT22;5889;51.350;6.708;2023-07-20T12:48:42;23.30;87.40
11666;DHT22;5889;51.350;6.708;2023-07-20T12:51:09;23.30;87.20
11666;DHT22;5889;51.350;6.708;2023-07-20T12:53:37;23.40;88.70
11666;DHT22;5889;51.350;6.708;2023-07-20T12:56:05;23.40;87.70
11666;DHT22;5889;51.350;6.708;2023-07-20T12:58:32;23.70;87.20
11666;DHT22;5889;51.350;6.708;2023-07-20T13:01:00;23.80;86.90
11666;DHT22;5889;51.350;6.708;2023-07-20T13:03:27;23.90;86.50
11666;DHT22;5889;51.350;6.708;2023-07-20T13:05:54;24.00;86.80
11666;DHT22;5889;51.350;6.708;2023-07-20T13:08:21;23.80;87.10
11666;DHT22;5889;51.350;6.708;2023-07-20T13:10:51;23.50;87.40
11666;DHT22;5889;51.350;6.708;2023-07-20T13:13:18;23.50;87.20
11666;DHT22;5889;51.350;6.708;2023-07-20T13:15:45;23.20;87.80
11666;DHT22;5889;51.350;6.708;2023-07-20T13:18:15;23.40;88.60
11666;DHT22;5889;51.350;6.708;2023-07-20T13:20:41;23.70;87.10
11666;DHT22;5889;51.350;6.708;2023-07-20T13:23:09;24.20;88.00
11666;DHT22;5889;51.350;6.708;2023-07-20T13:25:36;24.40;86.20
11666;DHT22;5889;51.350;6.708;2023-07-20T13:28:04;24.50;85.40
11666;DHT22;5889;51.350;6.708;2023-07-20T13:30:31;24.40;84.80
11666;DHT22;5889;51.350;6.708;2023-07-20T13:32:59;24.20;86.50
11666;DHT22;5889;51.350;6.708;2023-07-20T13:35:27;24.20;85.40
11666;DHT22;5889;51.350;6.708;2023-07-20T13:37:57;24.20;84.80
11666;DHT22;5889;51.350;6.708;2023-07-20T13:40:24;24.30;85.80
11666;DHT22;5889;51.350;6.708;2023-07-20T13:42:51;24.50;85.20
11666;DHT22;5889;51.350;6.708;2023-07-20T13:45:17;24.60;84.90
11666;DHT22;5889;51.350;6.708;2023-07-20T13:47:45;24.60;83.50
11666;DHT22;5889;51.350;6.708;2023-07-20T13:50:12;24.50;82.40
11666;DHT22;5889;51.350;6.708;2023-07-20T13:52:40;24.40;83.70
11666;DHT22;5889;51.350;6.708;2023-07-20T13:55:07;24.40;84.00
11666;DHT22;5889;51.350;6.708;2023-07-20T13:57:34;24.50;83.30
11666;DHT22;5889;51.350;6.708;2023-07-20T14:00:01;24.30;83.50
11666;DHT22;5889;51.350;6.708;2023-07-20T14:02:29;24.00;84.40
11666;DHT22;5889;51.350;6.708;2023-07-20T14:04:56;23.60;85.50
11666;DHT22;5889;51.350;6.708;2023-07-20T14:07:24;23.50;87.10
11666;DHT22;5889;51.350;6.708;2023-07-20T14:09:52;23.70;86.60
11666;DHT22;5889;51.350;6.708;2023-07-20T14:12:19;24.10;83.30
11666;DHT22;5889;51.350;6.708;2023-07-20T14:14:46;23.80;84.40
11666;DHT22;5889;51.350;6.708;2023-07-20T14:17:13;23.80;84.20
11666;DHT22;5889;51.350;6.708;2023-07-20T14:19:40;23.90;83.50
11666;DHT22;5889;51.350;6.708;2023-07-20T14:22:07;24.10;83.20
11666;DHT22;5889;51.350;6.708;2023-07-20T14:24:33;24.40;82.80
11666;DHT22;5889;51.350;6.708;2023-07-20T14:27:02;24.60;83.00
11666;DHT22;5889;51.350;6.708;2023-07-20T14:29:29;24.80;83.20
11666;DHT22;5889;51.350;6.708;2023-07-20T14:31:57;24.80;82.10
11666;DHT22;5889;51.350;6.708;2023-07-20T14:34:24;25.00;82.30
11666;DHT22;5889;51.350;6.708;2023-07-20T14:36:51;25.50;81.40
11666;DHT22;5889;51.350;6.708;2023-07-20T14:39:18;25.70;80.90
11666;DHT22;5889;51.350;6.708;2023-07-20T14:41:46;25.80;81.60
11666;DHT22;5889;51.350;6.708;2023-07-20T14:44:14;25.90;81.30
11666;DHT22;5889;51.350;6.708;2023-07-20T14:46:42;26.10;81.10
11666;DHT22;5889;51.350;6.708;2023-07-20T14:49:08;26.10;81.10
11666;DHT22;5889;51.350;6.708;2023-07-20T14:51:36;25.80;82.00
11666;DHT22;5889;51.350;6.708;2023-07-20T14:54:11;25.30;81.60
11666;DHT22;5889;51.350;6.708;2023-07-20T14:56:39;25.20;82.10
11666;DHT22;5889;51.350;6.708;2023-07-20T14:59:06;25.10;82.90
11666;DHT22;5889;51.350;6.708;2023-07-20T15:01:34;25.20;82.80
11666;DHT22;5889;51.350;6.708;2023-07-20T15:04:01;25.60;82.50
11666;DHT22;5889;51.350;6.708;2023-07-20T15:06:29;25.80;81.20
11666;DHT22;5889;51.350;6.708;2023-07-20T15:08:56;25.80;80.70
11666;DHT22;5889;51.350;6.708;2023-07-20T15:11:24;25.70;81.20
11666;DHT22;5889;51.350;6.708;2023-07-20T15:13:50;25.70;78.90
11666;DHT22;5889;51.350;6.708;2023-07-20T15:16:17;25.50;79.10
11666;DHT22;5889;51.350;6.708;2023-07-20T15:18:46;25.50;80.40
11666;DHT22;5889;51.350;6.708;2023-07-20T15:21:13;25.80;80.10
11666;DHT22;5889;51.350;6.708;2023-07-20T15:23:40;26.10;79.30
11666;DHT22;5889;51.350;6.708;2023-07-20T15:26:07;26.20;79.00
11666;DHT22;5889;51.350;6.708;2023-07-20T15:28:34;26.40;78.30
11666;DHT22;5889;51.350;6.708;2023-07-20T15:31:01;26.50;79.70
11666;DHT22;5889;51.350;6.708;2023-07-20T15:33:28;26.60;79.10
11666;DHT22;5889;51.350;6.708;2023-07-20T15:35:57;26.90;79.00
11666;DHT22;5889;51.350;6.708;2023-07-20T15:38:24;26.60;78.80
11666;DHT22;5889;51.350;6.708;2023-07-20T15:40:51;26.20;79.80
11666;DHT22;5889;51.350;6.708;2023-07-20T15:43:19;26.00;79.60
11666;DHT22;5889;51.350;6.708;2023-07-20T15:45:47;26.10;81.20
11666;DHT22;5889;51.350;6.708;2023-07-20T15:48:15;26.20;80.30
11666;DHT22;5889;51.350;6.708;2023-07-20T15:50:42;26.60;79.80
11666;DHT22;5889;51.350;6.708;2023-07-20T15:53:11;27.10;79.20
11666;DHT22;5889;51.350;6.708;2023-07-20T15:55:38;27.60;78.60
11666;DHT22;5889;51.350;6.708;2023-07-20T15:58:05;27.70;79.60
11666;DHT22;5889;51.350;6.708;2023-07-20T16:00:32;26.90;78.90